createdAt,value
2023-05-05T00:03:27.349Z,13.5
2023-05-05T00:13:28.461Z,13.3
2023-05-05T00:23:30.097Z,13.2
2023-05-05T00:33:31.305Z,13.1
2023-05-05T00:43:32.440Z,13
2023-05-05T00:53:33.571Z,13
2023-05-05T01:03:35.100Z,13
2023-05-05T01:23:37.472Z,13.1
2023-05-05T01:33:38.814Z,13.1
2023-05-05T02:03:42.690Z,13
2023-05-05T02:43:49.820Z,12.8
2023-05-05T02:53:51.346Z,12.9
2023-05-05T03:23:55.552Z,14.1
2023-05-05T03:26:33.973Z,14.1
2023-05-05T03:34:05.966Z,14.8
2023-05-05T03:44:07.414Z,15
2023-05-05T03:54:09.272Z,15.1
2023-05-05T04:04:11.005Z,15.2
2023-05-05T04:14:12.345Z,15.2
2023-05-05T04:24:14.168Z,15
2023-05-05T04:34:16.134Z,14.9
2023-05-05T04:54:18.930Z,14.5
2023-05-05T05:24:23.227Z,14.5
2023-05-05T05:34:24.632Z,14.7
2023-05-05T05:44:25.869Z,15
2023-05-05T05:54:27.362Z,15.3
2023-05-05T06:04:29.268Z,15.5
2023-05-05T06:14:30.155Z,15.7
2023-05-05T06:24:31.545Z,15.9
2023-05-05T06:34:32.834Z,16
2023-05-05T06:44:34.583Z,16.5
2023-05-05T06:54:36.126Z,17
2023-05-05T07:04:37.720Z,17.1
2023-05-05T07:14:39.018Z,17.3
2023-05-05T07:24:40.299Z,17.6
2023-05-05T07:34:42.280Z,17.8
2023-05-05T07:44:43.832Z,17.7
2023-05-05T07:54:45.523Z,18
2023-05-05T08:14:49.080Z,17.9
2023-05-05T08:24:50.271Z,18.3
2023-05-05T08:44:53.827Z,18.6
2023-05-05T08:54:54.916Z,18.9
2023-05-05T09:04:56.097Z,18.7
2023-05-05T09:24:59.364Z,19
2023-05-05T09:45:01.806Z,20.1
2023-05-05T09:55:02.920Z,20.2
2023-05-05T10:05:04.243Z,20.4
2023-05-05T10:25:07.507Z,20.2
2023-05-05T10:35:09.400Z,20.4
2023-05-05T10:45:11.409Z,20.8
2023-05-05T10:55:12.804Z,20.9
2023-05-05T11:05:14.867Z,20.8
2023-05-05T11:15:16.407Z,20.9
2023-05-05T11:25:17.961Z,21.1
2023-05-05T11:35:19.657Z,21
2023-05-05T11:45:21.461Z,21
2023-05-05T12:05:24.648Z,20.8
2023-05-05T12:15:26.312Z,20.7
2023-05-05T12:25:27.776Z,20.2
2023-05-05T12:35:29.739Z,19.8
2023-05-05T12:45:31.604Z,19.1
2023-05-05T13:05:34.533Z,14.5
2023-05-05T13:25:37.337Z,15.3
2023-05-05T13:35:38.710Z,15.4
2023-05-05T13:45:41.835Z,15.7
2023-05-05T13:55:41.964Z,15.9
2023-05-05T14:05:43.172Z,16
2023-05-05T14:35:47.282Z,16.6
2023-05-05T14:55:50.891Z,16
2023-05-05T15:05:52.091Z,15.3
2023-05-05T15:15:53.765Z,14.4
2023-05-05T15:25:55.661Z,13.7
2023-05-05T15:35:57.587Z,13.2
2023-05-05T15:45:58.984Z,12.9
2023-05-05T15:56:00.527Z,12.8
2023-05-05T16:16:03.016Z,12.7
2023-05-05T16:26:04.609Z,12.7
2023-05-05T16:36:05.882Z,12.7
2023-05-05T16:46:07.253Z,12.7
2023-05-05T17:06:10.066Z,12.8
2023-05-05T17:16:11.527Z,13.1
2023-05-05T17:26:12.813Z,13.2
2023-05-05T17:36:14.681Z,13.1
2023-05-05T17:46:16.547Z,13.2
2023-05-05T17:56:18.329Z,13.1
2023-05-05T18:06:19.994Z,13
2023-05-05T18:16:21.498Z,13
2023-05-05T18:26:22.549Z,12.8
2023-05-05T18:36:24.591Z,12.8
2023-05-05T18:46:26.270Z,12.8
2023-05-05T18:56:27.665Z,12.7
2023-05-05T19:06:28.742Z,12.6
2023-05-05T19:16:30.311Z,12.5
2023-05-05T19:26:31.166Z,12.5
2023-05-05T19:36:32.776Z,12.4
2023-05-05T19:46:34.566Z,12.3
2023-05-05T19:56:36.016Z,12.1
2023-05-05T20:16:38.875Z,11.7
2023-05-05T20:26:40.886Z,11.6
2023-05-05T20:36:42.453Z,11.5
2023-05-05T20:46:44.569Z,11.4
2023-05-05T20:56:46.151Z,11.3
2023-05-05T21:06:47.580Z,11.2
2023-05-05T21:16:49.486Z,11
2023-05-05T21:36:52.425Z,10.7
2023-05-05T21:46:54.359Z,10.6
2023-05-05T21:56:55.615Z,10.5
2023-05-05T22:06:56.901Z,10.4
2023-05-05T22:16:58.257Z,10.2
2023-05-05T22:26:59.956Z,10.2
2023-05-05T22:37:01.392Z,10.1
2023-05-05T22:57:04.458Z,10
2023-05-05T23:07:05.994Z,10
2023-05-05T23:17:07.823Z,10
2023-05-05T23:37:10.652Z,10
2023-05-05T23:47:12.314Z,9.9
2023-05-05T23:57:13.693Z,9.8
